createdAt,value
2023-05-14T00:02:02.530Z,8.10
2023-05-14T00:04:30.604Z,8.04
2023-05-14T00:06:59.159Z,7.93
2023-05-14T00:09:27.414Z,7.85
2023-05-14T00:11:55.697Z,7.86
2023-05-14T00:14:24.208Z,7.97
2023-05-14T00:16:52.353Z,8.00
2023-05-14T00:19:20.803Z,7.96
2023-05-14T00:21:49.218Z,7.76
2023-05-14T00:24:17.707Z,7.62
2023-05-14T00:26:45.891Z,7.54
2023-05-14T00:29:14.207Z,7.46
2023-05-14T00:31:42.308Z,7.50
2023-05-14T00:34:10.540Z,7.58
2023-05-14T00:36:38.626Z,7.59
2023-05-14T00:39:07.266Z,7.48
2023-05-14T00:41:36.203Z,7.34
2023-05-14T00:44:04.861Z,7.24
2023-05-14T00:46:32.913Z,7.26
2023-05-14T00:49:01.233Z,7.21
2023-05-14T00:51:29.983Z,7.19
2023-05-14T00:53:58.221Z,7.25
2023-05-14T00:56:28.196Z,7.33
2023-05-14T00:58:56.572Z,7.22
2023-05-14T01:01:24.930Z,7.18
2023-05-14T01:03:54.986Z,7.12
2023-05-14T01:06:43.304Z,7.07
2023-05-14T01:09:24.977Z,7.02
2023-05-14T01:12:13.834Z,6.98
2023-05-14T01:15:01.537Z,6.91
2023-05-14T01:17:33.440Z,6.98
2023-05-14T01:20:02.477Z,7.07
2023-05-14T01:22:30.714Z,7.07
2023-05-14T01:24:58.822Z,6.94
2023-05-14T01:27:38.972Z,6.89
2023-05-14T01:30:10.731Z,6.77
2023-05-14T01:32:40.959Z,6.71
2023-05-14T01:35:10.784Z,6.63
2023-05-14T01:37:41.896Z,6.65
2023-05-14T01:40:14.222Z,6.65
2023-05-14T01:42:43.519Z,6.59
2023-05-14T01:45:11.960Z,6.56
2023-05-14T01:47:40.109Z,6.51
2023-05-14T01:50:08.932Z,6.45
2023-05-14T01:52:37.181Z,6.43
2023-05-14T01:55:06.279Z,6.47
2023-05-14T01:57:34.692Z,6.54
2023-05-14T02:00:04.453Z,6.59
2023-05-14T02:02:42.257Z,6.63
2023-05-14T02:05:13.580Z,6.65
2023-05-14T02:07:41.932Z,6.58
2023-05-14T02:10:10.830Z,6.50
2023-05-14T02:12:39.115Z,6.49
2023-05-14T02:15:09.103Z,6.44
2023-05-14T02:17:37.400Z,6.41
2023-05-14T02:20:07.093Z,6.37
2023-05-14T02:22:35.302Z,6.32
2023-05-14T02:25:03.973Z,6.32
2023-05-14T02:27:32.016Z,6.34
2023-05-14T02:30:01.036Z,6.32
2023-05-14T02:32:29.270Z,6.39
2023-05-14T02:34:57.714Z,6.24
2023-05-14T02:37:26.199Z,6.14
2023-05-14T02:39:54.397Z,6.12
2023-05-14T02:42:24.104Z,6.15
2023-05-14T02:44:53.278Z,6.15
2023-05-14T02:47:21.795Z,6.05
2023-05-14T02:49:50.423Z,6.07
2023-05-14T02:52:18.726Z,6.10
2023-05-14T02:54:47.001Z,6.10
2023-05-14T02:57:15.390Z,6.09
2023-05-14T02:59:43.577Z,6.08
2023-05-14T03:02:12.258Z,6.05
2023-05-14T03:04:40.885Z,6.12
2023-05-14T03:07:09.115Z,6.17
2023-05-14T03:09:38.362Z,6.17
2023-05-14T03:12:08.080Z,6.23
2023-05-14T03:14:36.314Z,6.23
2023-05-14T03:17:04.608Z,6.19
2023-05-14T03:19:33.084Z,6.15
2023-05-14T03:22:01.650Z,6.11
2023-05-14T03:24:29.862Z,6.08
2023-05-14T03:26:58.093Z,6.19
2023-05-14T03:29:26.542Z,6.16
2023-05-14T03:31:54.866Z,6.14
2023-05-14T03:34:23.329Z,6.13
2023-05-14T03:36:51.440Z,6.17
2023-05-14T03:39:20.028Z,6.18
2023-05-14T03:41:48.628Z,6.23
2023-05-14T03:44:17.071Z,6.34
2023-05-14T03:46:45.734Z,6.47
2023-05-14T03:49:14.084Z,6.56
2023-05-14T03:51:42.097Z,6.63
2023-05-14T03:54:10.698Z,6.65
2023-05-14T03:56:39.295Z,6.56
2023-05-14T03:59:07.459Z,6.52
2023-05-14T04:01:35.848Z,6.54
2023-05-14T04:04:04.288Z,6.49
2023-05-14T04:06:33.487Z,6.46
2023-05-14T04:09:03.566Z,6.43
2023-05-14T04:11:31.717Z,6.49
2023-05-14T04:14:01.039Z,6.55
2023-05-14T04:16:30.133Z,6.62
2023-05-14T04:18:58.608Z,6.74
2023-05-14T04:21:26.983Z,6.94
2023-05-14T04:23:55.159Z,7.06
2023-05-14T04:26:23.257Z,7.22
2023-05-14T04:28:51.493Z,7.32
2023-05-14T04:31:19.865Z,7.49
2023-05-14T04:33:48.266Z,7.58
2023-05-14T04:36:16.599Z,7.67
2023-05-14T04:38:44.952Z,7.70
2023-05-14T04:41:13.085Z,7.69
2023-05-14T04:43:41.303Z,7.77
2023-05-14T04:46:09.560Z,7.77
2023-05-14T04:48:37.926Z,7.89
2023-05-14T04:51:07.174Z,7.97
2023-05-14T04:53:35.715Z,8.00
2023-05-14T04:56:03.774Z,8.01
2023-05-14T04:58:34.585Z,8.00
2023-05-14T05:01:05.212Z,7.98
2023-05-14T05:03:33.570Z,8.17
2023-05-14T05:06:02.064Z,8.36
2023-05-14T05:08:30.962Z,8.56
2023-05-14T05:10:59.223Z,8.67
2023-05-14T05:13:27.483Z,8.69
2023-05-14T05:15:55.846Z,8.79
2023-05-14T05:18:24.455Z,8.85
2023-05-14T05:20:52.583Z,8.86
2023-05-14T05:23:20.906Z,8.96
2023-05-14T05:25:50.016Z,9.11
2023-05-14T05:28:18.099Z,9.22
2023-05-14T05:30:46.356Z,9.30
2023-05-14T05:33:14.653Z,9.36
2023-05-14T05:35:44.649Z,9.38
2023-05-14T05:38:12.929Z,9.49
2023-05-14T05:40:41.317Z,9.56
2023-05-14T05:43:09.480Z,9.64
2023-05-14T05:45:37.812Z,9.64
2023-05-14T05:48:06.400Z,9.61
2023-05-14T05:50:34.515Z,9.55
2023-05-14T05:53:03.112Z,9.56
2023-05-14T05:55:31.180Z,9.62
2023-05-14T05:57:59.485Z,9.69
2023-05-14T06:00:27.773Z,9.82
2023-05-14T06:02:56.689Z,9.88
2023-05-14T06:05:25.069Z,9.94
2023-05-14T06:07:53.826Z,9.95
2023-05-14T06:10:22.346Z,9.92
2023-05-14T06:12:50.969Z,9.99
2023-05-14T06:15:19.320Z,10.01
2023-05-14T06:17:47.472Z,10.14
2023-05-14T06:20:15.993Z,10.24
2023-05-14T06:22:44.146Z,10.37
2023-05-14T06:25:12.371Z,10.60
2023-05-14T06:27:40.741Z,10.73
2023-05-14T06:30:11.166Z,10.89
2023-05-14T06:32:39.393Z,11.14
2023-05-14T06:35:08.265Z,11.38
2023-05-14T06:37:36.428Z,11.45
2023-05-14T06:40:05.719Z,11.68
2023-05-14T06:42:33.901Z,11.88
2023-05-14T06:45:02.593Z,11.95
2023-05-14T06:47:30.809Z,12.01
2023-05-14T06:50:01.200Z,12.06
2023-05-14T06:52:29.462Z,12.22
2023-05-14T06:54:57.660Z,12.43
2023-05-14T06:57:26.015Z,12.59
2023-05-14T06:59:54.193Z,12.70
2023-05-14T07:02:22.520Z,12.89
2023-05-14T07:04:50.922Z,13.12
2023-05-14T07:07:21.216Z,13.27
2023-05-14T07:09:49.456Z,13.41
2023-05-14T07:12:17.668Z,13.61
2023-05-14T07:14:46.800Z,13.81
2023-05-14T07:17:15.434Z,13.96
2023-05-14T07:19:43.733Z,14.11
2023-05-14T07:22:11.866Z,14.51
2023-05-14T07:24:39.908Z,14.79
2023-05-14T07:27:08.746Z,14.94
2023-05-14T07:29:37.115Z,14.88
2023-05-14T07:32:05.508Z,14.83
2023-05-14T07:34:33.777Z,14.91
2023-05-14T07:37:02.328Z,14.94
2023-05-14T07:39:30.447Z,14.97
2023-05-14T07:41:58.610Z,15.01
2023-05-14T07:44:26.608Z,15.07
2023-05-14T07:46:55.080Z,15.10
2023-05-14T07:49:23.444Z,15.06
2023-05-14T07:51:51.412Z,15.06
2023-05-14T07:54:19.537Z,15.08
2023-05-14T07:56:47.691Z,15.12
2023-05-14T07:59:15.967Z,15.20
2023-05-14T08:01:44.560Z,15.33
2023-05-14T08:04:13.157Z,15.43
2023-05-14T08:06:41.636Z,15.42
2023-05-14T08:09:09.884Z,15.41
2023-05-14T08:11:39.485Z,15.47
2023-05-14T08:14:07.992Z,15.50
2023-05-14T08:16:36.390Z,15.58
2023-05-14T08:19:04.778Z,15.70
2023-05-14T08:21:33.212Z,15.75
2023-05-14T08:24:01.796Z,15.79
2023-05-14T08:26:29.890Z,15.77
2023-05-14T08:28:58.350Z,15.88
2023-05-14T08:31:26.501Z,15.94
2023-05-14T08:33:54.910Z,16.08
2023-05-14T08:36:23.294Z,16.21
2023-05-14T08:38:51.593Z,16.30
2023-05-14T08:41:20.155Z,16.35
2023-05-14T08:44:02.059Z,16.42
2023-05-14T08:46:31.915Z,16.50
2023-05-14T08:49:36.099Z,16.57
2023-05-14T08:52:05.188Z,16.64
2023-05-14T08:54:33.718Z,16.69
2023-05-14T08:57:03.809Z,16.77
2023-05-14T08:59:32.402Z,16.83
2023-05-14T09:02:06.535Z,16.85
2023-05-14T09:04:36.209Z,16.97
2023-05-14T09:07:04.786Z,17.16
2023-05-14T09:09:33.401Z,17.34
2023-05-14T09:12:02.574Z,17.51
2023-05-14T09:14:30.710Z,17.72
2023-05-14T09:16:59.435Z,17.85
2023-05-14T09:19:28.332Z,17.99
2023-05-14T09:21:59.387Z,18.11
2023-05-14T09:24:31.846Z,18.23
2023-05-14T09:27:00.003Z,18.25
2023-05-14T09:29:29.650Z,18.27
2023-05-14T09:31:58.822Z,18.16
2023-05-14T09:34:29.467Z,18.05
2023-05-14T09:36:59.902Z,18.02
2023-05-14T09:39:28.997Z,17.97
2023-05-14T09:41:57.637Z,17.93
2023-05-14T09:44:26.481Z,17.88
2023-05-14T09:46:55.491Z,17.72
2023-05-14T09:49:23.982Z,17.71
2023-05-14T09:51:52.334Z,17.76
2023-05-14T09:54:20.706Z,17.72
2023-05-14T09:56:48.984Z,17.69
2023-05-14T09:59:17.032Z,17.72
2023-05-14T10:01:46.407Z,17.70
2023-05-14T10:04:15.494Z,17.65
2023-05-14T10:06:46.123Z,17.55
2023-05-14T10:09:17.165Z,17.45
2023-05-14T10:11:53.002Z,17.44
2023-05-14T10:14:27.132Z,17.47
2023-05-14T10:16:59.632Z,17.49
2023-05-14T10:19:31.365Z,17.49
2023-05-14T10:22:10.397Z,17.48
2023-05-14T10:24:39.145Z,17.45
2023-05-14T10:27:07.288Z,17.42
2023-05-14T10:29:37.685Z,17.36
2023-05-14T10:32:08.196Z,17.29
2023-05-14T10:34:44.277Z,17.26
2023-05-14T10:37:19.660Z,17.25
2023-05-14T10:39:55.009Z,17.16
2023-05-14T10:42:36.078Z,17.03
2023-05-14T10:45:08.250Z,16.99
2023-05-14T10:47:38.055Z,17.00
2023-05-14T10:50:08.703Z,17.03
2023-05-14T10:52:37.310Z,16.99
2023-05-14T10:55:13.178Z,17.02
2023-05-14T10:57:43.959Z,17.07
2023-05-14T11:00:14.188Z,17.07
2023-05-14T11:02:44.835Z,17.07
2023-05-14T11:05:17.966Z,17.05
2023-05-14T11:07:50.555Z,17.07
2023-05-14T11:10:20.996Z,17.11
2023-05-14T11:12:51.251Z,17.17
2023-05-14T11:15:23.065Z,17.23
2023-05-14T11:17:53.003Z,17.24
2023-05-14T11:20:21.530Z,17.27
2023-05-14T11:22:51.956Z,17.28
2023-05-14T11:25:21.979Z,17.33
2023-05-14T11:27:50.742Z,17.32
2023-05-14T11:30:20.124Z,17.35
2023-05-14T11:32:50.088Z,17.36
2023-05-14T11:35:19.027Z,17.33
2023-05-14T11:37:54.366Z,17.33
2023-05-14T11:40:22.762Z,17.31
2023-05-14T11:42:53.632Z,17.23
2023-05-14T11:45:26.883Z,17.20
2023-05-14T11:47:55.121Z,17.15
2023-05-14T11:50:23.966Z,17.12
2023-05-14T11:52:57.161Z,17.04
2023-05-14T11:55:25.655Z,17.00
2023-05-14T11:57:54.533Z,16.95
2023-05-14T12:00:24.900Z,16.89
2023-05-14T12:02:54.749Z,16.81
2023-05-14T12:05:23.036Z,16.73
2023-05-14T12:07:51.264Z,16.65
2023-05-14T12:10:19.387Z,16.57
2023-05-14T12:12:49.003Z,16.51
2023-05-14T12:15:17.510Z,16.39
2023-05-14T12:17:52.056Z,16.33
2023-05-14T12:20:20.947Z,16.25
2023-05-14T12:22:49.406Z,16.12
2023-05-14T12:25:17.554Z,15.97
2023-05-14T12:27:45.600Z,15.90
2023-05-14T12:32:46.657Z,15.81
2023-05-14T12:35:15.290Z,15.75
2023-05-14T12:37:43.385Z,15.71
2023-05-14T12:40:12.140Z,15.72
2023-05-14T12:42:40.264Z,15.71
2023-05-14T12:45:08.965Z,15.72
2023-05-14T12:47:37.607Z,15.68
2023-05-14T12:50:07.096Z,15.66
2023-05-14T12:52:39.175Z,15.63
2023-05-14T12:55:09.478Z,15.58
2023-05-14T12:57:39.280Z,15.59
2023-05-14T13:00:21.219Z,15.59
2023-05-14T13:02:49.723Z,15.63
2023-05-14T13:05:18.105Z,15.60
2023-05-14T13:07:46.347Z,15.58
2023-05-14T13:10:14.630Z,15.55
2023-05-14T13:12:42.758Z,15.53
2023-05-14T13:15:11.733Z,15.44
2023-05-14T13:17:41.549Z,15.33
2023-05-14T13:20:10.283Z,15.32
2023-05-14T13:22:38.619Z,15.30
2023-05-14T13:25:07.888Z,15.27
2023-05-14T13:27:37.182Z,15.24
2023-05-14T13:30:06.294Z,15.24
2023-05-14T13:32:34.583Z,15.21
2023-05-14T13:35:02.990Z,15.15
2023-05-14T13:37:31.010Z,15.12
2023-05-14T13:39:59.143Z,15.15
2023-05-14T13:42:27.394Z,15.15
2023-05-14T13:44:56.563Z,15.23
2023-05-14T13:47:25.980Z,15.29
2023-05-14T13:49:55.264Z,15.28
2023-05-14T13:52:23.308Z,15.28
2023-05-14T13:54:51.528Z,15.29
2023-05-14T13:57:20.349Z,15.29
2023-05-14T13:59:48.597Z,15.18
2023-05-14T14:02:16.670Z,15.08
2023-05-14T14:04:45.206Z,15.02
2023-05-14T14:07:13.445Z,14.95
2023-05-14T14:09:41.593Z,14.87
2023-05-14T14:12:10.469Z,14.85
2023-05-14T14:14:39.193Z,14.79
2023-05-14T14:17:09.195Z,14.77
2023-05-14T14:19:37.491Z,14.77
2023-05-14T14:22:05.855Z,14.72
2023-05-14T14:24:34.176Z,14.72
2023-05-14T14:27:02.496Z,14.70
2023-05-14T14:29:31.502Z,14.70
2023-05-14T14:31:59.610Z,14.66
2023-05-14T14:34:28.170Z,14.65
2023-05-14T14:36:56.277Z,14.65
2023-05-14T14:39:25.543Z,14.63
2023-05-14T14:41:53.579Z,14.60
2023-05-14T14:44:21.728Z,14.58
2023-05-14T14:46:49.840Z,14.56
2023-05-14T14:49:17.909Z,14.45
2023-05-14T14:51:47.150Z,14.47
2023-05-14T14:54:15.704Z,14.49
2023-05-14T14:56:46.087Z,14.46
2023-05-14T14:59:14.105Z,14.45
2023-05-14T15:01:42.470Z,14.44
2023-05-14T15:04:10.787Z,14.45
2023-05-14T15:06:39.061Z,14.43
2023-05-14T15:09:07.870Z,14.44
2023-05-14T15:11:37.502Z,14.43
2023-05-14T15:14:06.315Z,14.41
2023-05-14T15:16:34.507Z,14.40
2023-05-14T15:19:02.812Z,14.40
2023-05-14T15:21:32.238Z,14.37
2023-05-14T15:24:00.497Z,14.38
2023-05-14T15:26:28.875Z,14.36
2023-05-14T15:28:58.804Z,14.32
2023-05-14T15:31:27.194Z,14.29
2023-05-14T15:33:56.296Z,14.32
2023-05-14T15:36:24.557Z,14.34
2023-05-14T15:38:52.784Z,14.35
2023-05-14T15:41:21.344Z,14.37
2023-05-14T15:43:49.586Z,14.36
2023-05-14T15:46:18.015Z,14.36
2023-05-14T15:48:46.346Z,14.32
2023-05-14T15:51:14.773Z,14.29
2023-05-14T15:53:43.214Z,14.27
2023-05-14T15:56:11.463Z,14.23
2023-05-14T15:58:39.676Z,14.22
2023-05-14T16:01:07.740Z,14.21
2023-05-14T16:03:36.002Z,14.18
2023-05-14T16:06:04.840Z,14.17
2023-05-14T16:08:33.190Z,14.15
2023-05-14T16:11:01.474Z,14.13
2023-05-14T16:13:29.640Z,14.12
2023-05-14T16:15:59.752Z,14.14
2023-05-14T16:18:28.199Z,14.14
2023-05-14T16:20:56.731Z,14.15
2023-05-14T16:23:25.036Z,14.14
2023-05-14T16:25:53.700Z,14.11
2023-05-14T16:28:21.717Z,14.08
2023-05-14T16:30:50.145Z,14.07
2023-05-14T16:33:18.323Z,14.06
2023-05-14T16:35:46.538Z,14.06
2023-05-14T16:38:14.552Z,14.04
2023-05-14T16:40:42.900Z,14.02
2023-05-14T16:43:11.430Z,14.02
2023-05-14T16:45:40.636Z,14.00
2023-05-14T16:48:08.844Z,13.98
2023-05-14T16:50:37.246Z,13.97
2023-05-14T16:53:05.498Z,13.95
2023-05-14T16:55:33.644Z,13.93
2023-05-14T16:58:01.875Z,13.93
2023-05-14T17:00:30.094Z,13.93
2023-05-14T17:02:58.325Z,13.92
2023-05-14T17:05:26.763Z,13.92
2023-05-14T17:07:55.026Z,13.89
2023-05-14T17:10:25.328Z,13.92
2023-05-14T17:12:53.644Z,13.95
2023-05-14T17:15:41.991Z,13.97
2023-05-14T17:18:12.080Z,13.97
2023-05-14T17:20:40.646Z,13.96
2023-05-14T17:23:08.995Z,13.94
2023-05-14T17:25:37.441Z,13.93
2023-05-14T17:28:05.698Z,13.92
2023-05-14T17:30:33.947Z,13.89
2023-05-14T17:33:02.197Z,13.88
2023-05-14T17:35:30.693Z,13.85
2023-05-14T17:38:00.456Z,13.83
2023-05-14T17:40:29.186Z,13.80
2023-05-14T17:42:57.311Z,13.78
2023-05-14T17:45:26.730Z,13.76
2023-05-14T17:47:55.177Z,13.73
2023-05-14T17:50:23.498Z,13.70
2023-05-14T17:52:51.818Z,13.68
2023-05-14T17:55:19.871Z,13.69
2023-05-14T17:57:48.232Z,13.69
2023-05-14T18:00:17.246Z,13.68
2023-05-14T18:02:45.390Z,13.67
2023-05-14T18:05:13.644Z,13.65
2023-05-14T18:07:41.878Z,13.64
2023-05-14T18:10:10.921Z,13.64
2023-05-14T18:12:39.153Z,13.63
2023-05-14T18:15:08.040Z,13.63
2023-05-14T18:17:36.276Z,13.62
2023-05-14T18:20:05.551Z,13.62
2023-05-14T18:22:33.974Z,13.59
2023-05-14T18:25:02.606Z,13.55
2023-05-14T18:27:31.149Z,13.49
2023-05-14T18:29:59.354Z,13.44
2023-05-14T18:32:27.593Z,13.41
2023-05-14T18:34:55.797Z,13.36
2023-05-14T18:37:23.985Z,13.31
2023-05-14T18:39:52.158Z,13.27
2023-05-14T18:42:20.296Z,13.26
2023-05-14T18:44:48.298Z,13.26
2023-05-14T18:47:16.670Z,13.23
2023-05-14T18:49:44.862Z,13.19
2023-05-14T18:52:13.456Z,13.15
2023-05-14T18:54:41.649Z,13.14
2023-05-14T18:57:10.309Z,13.14
2023-05-14T18:59:38.540Z,13.14
2023-05-14T19:02:07.094Z,13.15
2023-05-14T19:04:47.849Z,13.16
2023-05-14T19:07:19.909Z,13.15
2023-05-14T19:09:48.386Z,13.15
2023-05-14T19:12:16.513Z,13.15
2023-05-14T19:14:44.844Z,13.16
2023-05-14T19:17:13.092Z,13.14
2023-05-14T19:19:41.814Z,13.13
2023-05-14T19:22:09.938Z,13.13
2023-05-14T19:24:38.160Z,13.13
2023-05-14T19:27:06.489Z,13.12
2023-05-14T19:29:37.076Z,13.12
2023-05-14T19:32:05.927Z,13.10
2023-05-14T19:34:34.192Z,13.10
2023-05-14T19:37:02.828Z,13.09
2023-05-14T19:39:31.173Z,13.10
2023-05-14T19:41:59.638Z,13.10
2023-05-14T19:44:27.868Z,13.10
2023-05-14T19:46:55.966Z,13.07
2023-05-14T19:49:24.123Z,13.06
2023-05-14T19:51:52.378Z,13.03
2023-05-14T19:54:20.673Z,13.00
2023-05-14T19:56:49.346Z,12.97
2023-05-14T19:59:17.552Z,12.95
2023-05-14T20:01:46.124Z,12.90
2023-05-14T20:04:16.234Z,12.86
2023-05-14T20:06:45.663Z,12.80
2023-05-14T20:09:14.642Z,12.75
2023-05-14T20:11:42.859Z,12.71
2023-05-14T20:14:11.202Z,12.70
2023-05-14T20:16:39.464Z,12.71
2023-05-14T20:19:08.313Z,12.72
2023-05-14T20:21:36.525Z,12.70
2023-05-14T20:24:05.286Z,12.66
2023-05-14T20:26:33.529Z,12.60
2023-05-14T20:29:01.805Z,12.55
2023-05-14T20:31:30.017Z,12.51
2023-05-14T20:33:58.140Z,12.50
2023-05-14T20:36:29.842Z,12.48
2023-05-14T20:38:57.968Z,12.47
2023-05-14T20:41:26.636Z,12.45
2023-05-14T20:43:54.898Z,12.44
2023-05-14T20:46:23.253Z,12.44
2023-05-14T20:48:54.029Z,12.42
2023-05-14T20:51:22.240Z,12.44
2023-05-14T20:53:50.574Z,12.44
2023-05-14T20:56:18.716Z,12.44
2023-05-14T20:58:46.879Z,12.43
2023-05-14T21:01:15.199Z,12.41
2023-05-14T21:03:43.958Z,12.40
2023-05-14T21:06:12.273Z,12.38
2023-05-14T21:08:40.705Z,12.34
2023-05-14T21:11:08.971Z,12.26
2023-05-14T21:13:37.168Z,12.21
2023-05-14T21:16:05.864Z,12.20
2023-05-14T21:18:34.233Z,12.18
2023-05-14T21:21:02.503Z,12.14
2023-05-14T21:23:30.871Z,12.10
2023-05-14T21:25:59.079Z,12.05
2023-05-14T21:28:27.225Z,12.01
2023-05-14T21:30:55.280Z,11.94
2023-05-14T21:33:24.152Z,11.96
2023-05-14T21:35:52.328Z,12.00
2023-05-14T21:38:21.285Z,12.03
2023-05-14T21:40:49.539Z,12.08
2023-05-14T21:43:17.846Z,12.10
2023-05-14T21:45:49.445Z,12.11
2023-05-14T21:48:18.113Z,12.12
2023-05-14T21:50:46.285Z,12.09
2023-05-14T21:53:14.522Z,12.09
2023-05-14T21:55:42.647Z,12.03
2023-05-14T21:58:10.966Z,11.99
2023-05-14T22:00:39.220Z,12.01
2023-05-14T22:03:07.515Z,12.01
2023-05-14T22:05:36.110Z,12.00
2023-05-14T22:08:04.754Z,12.01
2023-05-14T22:10:32.791Z,12.01
2023-05-14T22:13:01.114Z,11.97
2023-05-14T22:15:29.291Z,11.95
2023-05-14T22:17:57.827Z,11.98
2023-05-14T22:20:26.082Z,12.00
2023-05-14T22:22:54.465Z,11.99
2023-05-14T22:25:22.925Z,11.98
2023-05-14T22:27:51.653Z,11.98
2023-05-14T22:30:19.814Z,11.99
2023-05-14T22:32:48.067Z,11.98
2023-05-14T22:35:17.287Z,11.98
2023-05-14T22:37:45.776Z,11.95
2023-05-14T22:40:14.780Z,11.94
2023-05-14T22:42:43.141Z,11.91
2023-05-14T22:45:11.785Z,11.85
2023-05-14T22:47:40.087Z,11.81
2023-05-14T22:50:11.649Z,11.76
2023-05-14T22:52:40.519Z,11.75
2023-05-14T22:55:09.461Z,11.72
2023-05-14T22:57:38.025Z,11.76
2023-05-14T23:00:08.010Z,11.81
2023-05-14T23:02:36.307Z,11.83
2023-05-14T23:05:05.580Z,11.84
2023-05-14T23:07:33.612Z,11.87
2023-05-14T23:10:02.013Z,11.83
2023-05-14T23:12:30.277Z,11.79
2023-05-14T23:14:59.465Z,11.75
2023-05-14T23:17:27.675Z,11.72
2023-05-14T23:19:56.192Z,11.65
2023-05-14T23:22:24.505Z,11.57
2023-05-14T23:24:52.793Z,11.48
2023-05-14T23:27:21.166Z,11.45
2023-05-14T23:29:49.285Z,11.47
2023-05-14T23:32:17.663Z,11.46
2023-05-14T23:34:46.144Z,11.47
2023-05-14T23:37:14.793Z,11.48
2023-05-14T23:39:42.959Z,11.51
2023-05-14T23:42:11.206Z,11.51
2023-05-14T23:44:39.520Z,11.49
2023-05-14T23:47:08.836Z,11.49
2023-05-14T23:49:37.055Z,11.47
2023-05-14T23:52:05.782Z,11.44
2023-05-14T23:54:33.988Z,11.42
2023-05-14T23:57:03.375Z,11.44
2023-05-14T23:59:31.666Z,11.40
